createdAt,value
2018-07-15T00:00:54.951Z,17.90
2018-07-15T00:03:22.495Z,18.00
2018-07-15T00:08:17.219Z,17.90
2018-07-15T00:10:45.602Z,17.80
2018-07-15T00:13:13.767Z,17.90
2018-07-15T00:15:41.820Z,17.70
2018-07-15T00:18:09.202Z,17.80
2018-07-15T00:20:37.009Z,17.80
2018-07-15T00:23:04.663Z,17.80
2018-07-15T00:25:32.205Z,17.90
2018-07-15T00:27:59.879Z,17.80
2018-07-15T00:30:27.496Z,17.70
2018-07-15T00:32:54.965Z,17.70
2018-07-15T00:35:22.493Z,17.60
2018-07-15T00:37:49.886Z,17.50
2018-07-15T00:40:17.313Z,17.40
2018-07-15T00:42:44.792Z,17.30
2018-07-15T00:45:12.259Z,17.30
2018-07-15T00:47:39.660Z,17.30
2018-07-15T00:50:07.108Z,17.30
2018-07-15T00:52:34.450Z,17.20
2018-07-15T00:55:01.811Z,17.10
2018-07-15T00:57:29.206Z,17.10
2018-07-15T00:59:56.663Z,17.00
2018-07-15T01:02:24.002Z,17.00
2018-07-15T01:04:51.331Z,17.10
2018-07-15T01:07:18.987Z,16.90
2018-07-15T01:09:46.420Z,16.80
2018-07-15T01:12:13.822Z,16.50
2018-07-15T01:14:41.203Z,16.40
2018-07-15T01:17:08.586Z,16.30
2018-07-15T01:19:36.380Z,16.30
2018-07-15T01:22:03.740Z,16.30
2018-07-15T01:24:31.132Z,16.30
2018-07-15T01:26:58.564Z,16.30
2018-07-15T01:29:25.905Z,16.30
2018-07-15T01:31:53.325Z,16.30
2018-07-15T01:34:20.675Z,16.30
2018-07-15T01:36:48.032Z,16.30
2018-07-15T01:39:15.516Z,16.30
2018-07-15T01:41:42.970Z,16.30
2018-07-15T01:44:10.303Z,16.30
2018-07-15T01:46:38.053Z,16.30
2018-07-15T01:49:05.397Z,16.40
2018-07-15T01:51:32.781Z,16.30
2018-07-15T01:54:00.247Z,16.30
2018-07-15T01:56:27.622Z,16.30
2018-07-15T01:58:55.047Z,16.40
2018-07-15T02:01:22.789Z,16.50
2018-07-15T02:06:17.574Z,16.40
2018-07-15T02:08:44.910Z,16.30
2018-07-15T02:11:16.240Z,16.30
2018-07-15T02:13:43.781Z,16.20
2018-07-15T02:16:11.243Z,16.10
2018-07-15T02:18:38.668Z,16.00
2018-07-15T02:26:00.686Z,15.90
2018-07-15T02:28:28.090Z,15.90
2018-07-15T02:30:55.490Z,15.90
2018-07-15T02:33:22.852Z,15.80
2018-07-15T02:35:50.226Z,15.70
2018-07-15T02:38:17.561Z,15.70
2018-07-15T02:40:44.947Z,15.60
2018-07-15T02:43:12.367Z,15.60
2018-07-15T02:45:39.809Z,15.60
2018-07-15T02:48:07.134Z,15.60
2018-07-15T02:50:34.482Z,15.60
2018-07-15T02:53:01.889Z,15.60
2018-07-15T02:55:29.330Z,15.60
2018-07-15T02:57:56.817Z,15.60
2018-07-15T03:00:27.722Z,15.70
2018-07-15T03:02:55.622Z,15.60
2018-07-15T03:05:23.158Z,15.50
2018-07-15T03:07:50.481Z,15.60
2018-07-15T03:10:17.874Z,15.70
2018-07-15T03:12:45.261Z,15.60
2018-07-15T03:15:12.641Z,15.50
2018-07-15T03:17:39.976Z,15.40
2018-07-15T03:20:07.517Z,15.40
2018-07-15T03:22:34.877Z,15.40
2018-07-15T03:25:02.441Z,15.30
2018-07-15T03:27:29.787Z,15.30
2018-07-15T03:29:57.169Z,15.30
2018-07-15T03:32:24.566Z,15.30
2018-07-15T03:34:51.953Z,15.30
2018-07-15T03:37:19.393Z,15.40
2018-07-15T03:39:46.824Z,15.40
2018-07-15T03:42:14.273Z,15.40
2018-07-15T03:44:41.662Z,15.40
2018-07-15T03:47:08.989Z,15.30
2018-07-15T03:49:36.493Z,15.30
2018-07-15T03:52:03.929Z,15.20
2018-07-15T03:54:31.273Z,15.30
2018-07-15T03:56:58.725Z,15.30
2018-07-15T03:59:26.107Z,15.20
2018-07-15T04:01:53.485Z,15.20
2018-07-15T04:04:20.757Z,15.10
2018-07-15T04:06:48.193Z,15.20
2018-07-15T04:09:16.046Z,15.20
2018-07-15T04:11:43.405Z,15.10
2018-07-15T04:14:10.799Z,15.10
2018-07-15T04:16:38.195Z,15.10
2018-07-15T04:19:05.526Z,15.10
2018-07-15T04:21:32.924Z,15.10
2018-07-15T04:24:00.318Z,15.10
2018-07-15T04:26:27.704Z,15.10
2018-07-15T04:28:55.033Z,15.10
2018-07-15T04:31:22.473Z,15.10
2018-07-15T04:33:49.891Z,15.10
2018-07-15T04:36:17.306Z,15.20
2018-07-15T04:38:44.630Z,15.30
2018-07-15T04:41:12.019Z,15.40
2018-07-15T04:43:39.455Z,15.50
2018-07-15T04:46:06.893Z,15.60
2018-07-15T04:48:34.340Z,15.60
2018-07-15T04:51:01.768Z,15.80
2018-07-15T04:53:29.170Z,15.90
2018-07-15T04:55:56.569Z,16.00
2018-07-15T04:58:24.010Z,16.00
2018-07-15T05:00:51.434Z,16.10
2018-07-15T05:03:18.946Z,16.20
2018-07-15T05:05:57.784Z,16.30
2018-07-15T05:08:25.590Z,16.40
2018-07-15T05:11:29.766Z,16.50
2018-07-15T05:13:57.265Z,16.50
2018-07-15T05:16:24.706Z,16.50
2018-07-15T05:18:52.126Z,16.50
2018-07-15T05:21:19.506Z,16.70
2018-07-15T05:23:46.848Z,16.80
2018-07-15T05:26:14.306Z,16.90
2018-07-15T05:28:41.667Z,17.00
2018-07-15T05:31:08.949Z,17.20
2018-07-15T05:33:36.485Z,17.30
2018-07-15T05:36:04.150Z,17.50
2018-07-15T05:38:31.537Z,17.60
2018-07-15T05:40:59.017Z,17.80
2018-07-15T05:43:26.417Z,17.90
2018-07-15T05:45:53.782Z,18.10
2018-07-15T05:48:21.170Z,18.30
2018-07-15T05:50:48.546Z,18.40
2018-07-15T05:53:15.938Z,18.30
2018-07-15T05:55:43.358Z,18.20
2018-07-15T05:58:10.860Z,18.20
2018-07-15T06:00:38.301Z,18.30
2018-07-15T06:03:05.706Z,18.30
2018-07-15T06:05:33.140Z,18.70
2018-07-15T06:08:00.492Z,18.80
2018-07-15T06:10:27.908Z,18.80
2018-07-15T06:12:55.277Z,19.00
2018-07-15T06:15:22.654Z,19.20
2018-07-15T06:17:49.999Z,19.40
2018-07-15T06:20:17.398Z,19.60
2018-07-15T06:22:44.979Z,19.70
2018-07-15T06:25:12.392Z,19.80
2018-07-15T06:27:39.843Z,19.90
2018-07-15T06:30:07.305Z,20.10
2018-07-15T06:32:34.762Z,20.20
2018-07-15T06:35:02.073Z,20.20
2018-07-15T06:37:29.469Z,20.30
2018-07-15T06:39:56.949Z,20.50
2018-07-15T06:42:24.356Z,20.60
2018-07-15T06:44:51.750Z,20.70
2018-07-15T06:47:19.189Z,20.80
2018-07-15T06:49:46.549Z,20.90
2018-07-15T06:52:13.887Z,21.00
2018-07-15T06:54:41.296Z,21.00
2018-07-15T06:57:08.781Z,21.00
2018-07-15T06:59:36.227Z,21.00
2018-07-15T07:02:03.639Z,21.20
2018-07-15T07:04:31.097Z,21.30
2018-07-15T07:06:58.511Z,21.50
2018-07-15T07:09:25.989Z,21.60
2018-07-15T07:11:53.398Z,21.60
2018-07-15T07:14:20.869Z,21.70
2018-07-15T07:16:48.303Z,22.10
2018-07-15T07:21:43.107Z,21.90
2018-07-15T07:24:10.527Z,21.80
2018-07-15T07:26:37.878Z,22.00
2018-07-15T07:29:05.276Z,22.00
2018-07-15T07:31:32.719Z,22.20
2018-07-15T07:34:00.131Z,22.50
2018-07-15T07:36:27.595Z,22.50
2018-07-15T07:38:55.092Z,22.70
2018-07-15T07:41:22.551Z,22.90
2018-07-15T07:43:49.797Z,23.00
2018-07-15T07:46:17.155Z,23.20
2018-07-15T07:48:44.558Z,23.30
2018-07-15T07:51:12.013Z,23.30
2018-07-15T07:53:39.363Z,23.30
2018-07-15T07:56:06.806Z,23.50
2018-07-15T07:58:34.226Z,23.60
2018-07-15T08:01:01.583Z,23.60
2018-07-15T08:03:29.066Z,23.70
2018-07-15T08:05:56.443Z,23.70
2018-07-15T08:08:23.863Z,23.70
2018-07-15T08:10:51.292Z,23.90
2018-07-15T08:13:18.813Z,23.90
2018-07-15T08:15:46.322Z,23.90
2018-07-15T08:18:13.638Z,23.90
2018-07-15T08:20:41.106Z,23.90
2018-07-15T08:23:08.472Z,23.90
2018-07-15T08:25:35.898Z,24.00
2018-07-15T08:28:03.335Z,24.00
2018-07-15T08:30:42.153Z,23.70
2018-07-15T08:33:09.457Z,23.80
2018-07-15T08:35:36.890Z,23.50
2018-07-15T08:38:04.373Z,23.50
2018-07-15T08:40:31.807Z,23.60
2018-07-15T08:42:59.195Z,23.70
2018-07-15T08:45:26.499Z,23.90
2018-07-15T08:47:53.827Z,24.00
2018-07-15T08:50:21.586Z,24.20
2018-07-15T08:52:49.025Z,24.50
2018-07-15T08:55:16.754Z,24.60
2018-07-15T08:57:44.162Z,24.50
2018-07-15T09:00:11.506Z,24.60
2018-07-15T09:02:38.818Z,24.90
2018-07-15T09:05:06.377Z,25.00
2018-07-15T09:07:33.899Z,25.20
2018-07-15T09:10:01.398Z,25.30
2018-07-15T09:12:28.773Z,25.50
2018-07-15T09:14:56.236Z,25.70
2018-07-15T09:17:23.726Z,26.00
2018-07-15T09:19:51.213Z,26.10
2018-07-15T09:22:18.779Z,25.90
2018-07-15T09:24:46.186Z,26.00
2018-07-15T09:27:13.670Z,26.50
2018-07-15T09:32:08.458Z,26.70
2018-07-15T09:34:35.974Z,26.80
2018-07-15T09:37:03.423Z,26.70
2018-07-15T09:39:30.913Z,26.40
2018-07-15T09:41:58.457Z,26.60
2018-07-15T09:44:25.947Z,26.70
2018-07-15T09:46:53.342Z,27.00
2018-07-15T09:49:20.695Z,27.00
2018-07-15T09:51:48.196Z,27.10
2018-07-15T09:54:15.618Z,27.20
2018-07-15T09:56:43.081Z,27.30
2018-07-15T09:59:10.614Z,27.30
2018-07-15T10:01:38.023Z,27.30
2018-07-15T10:04:05.648Z,27.40
2018-07-15T10:06:34.568Z,27.40
2018-07-15T10:09:02.049Z,27.60
2018-07-15T10:11:29.554Z,27.60
2018-07-15T10:13:56.954Z,27.90
2018-07-15T10:16:24.338Z,27.80
2018-07-15T10:18:51.755Z,27.80
2018-07-15T10:21:19.147Z,28.20
2018-07-15T10:23:46.649Z,28.20
2018-07-15T10:26:13.966Z,28.30
2018-07-15T10:28:41.331Z,28.30
2018-07-15T10:31:08.807Z,28.50
2018-07-15T10:33:36.369Z,28.60
2018-07-15T10:36:03.778Z,28.50
2018-07-15T10:38:31.147Z,28.50
2018-07-15T10:40:58.631Z,28.70
2018-07-15T10:43:26.149Z,28.70
2018-07-15T10:45:53.625Z,28.90
2018-07-15T10:48:21.015Z,29.10
2018-07-15T10:50:48.491Z,28.90
2018-07-15T10:53:15.935Z,29.10
2018-07-15T10:55:43.358Z,29.20
2018-07-15T10:58:11.131Z,29.20
2018-07-15T11:00:38.706Z,29.30
2018-07-15T11:03:06.067Z,29.20
2018-07-15T11:05:33.472Z,29.30
2018-07-15T11:08:00.993Z,29.50
2018-07-15T11:10:28.578Z,29.50
2018-07-15T11:12:55.886Z,29.40
2018-07-15T11:15:23.380Z,29.60
2018-07-15T11:17:50.800Z,29.50
2018-07-15T11:20:18.345Z,29.40
2018-07-15T11:22:45.803Z,29.70
2018-07-15T11:25:13.100Z,29.80
2018-07-15T11:27:40.519Z,29.20
2018-07-15T11:30:07.999Z,29.00
2018-07-15T11:32:35.470Z,29.50
2018-07-15T11:35:02.975Z,29.70
2018-07-15T11:37:30.437Z,29.90
2018-07-15T11:39:57.876Z,30.00
2018-07-15T11:42:25.329Z,30.20
2018-07-15T11:44:52.685Z,30.20
2018-07-15T11:47:20.234Z,29.70
2018-07-15T11:49:47.584Z,29.90
2018-07-15T11:52:15.095Z,30.00
2018-07-15T11:54:42.425Z,29.60
2018-07-15T11:57:09.817Z,29.40
2018-07-15T11:59:37.245Z,29.20
2018-07-15T12:04:32.135Z,28.60
2018-07-15T12:06:59.698Z,28.50
2018-07-15T12:09:27.085Z,28.20
2018-07-15T12:11:54.478Z,28.10
2018-07-15T12:14:21.926Z,28.00
2018-07-15T12:16:49.277Z,27.80
2018-07-15T12:19:16.752Z,27.70
2018-07-15T12:21:44.139Z,27.50
2018-07-15T12:24:11.675Z,27.40
2018-07-15T12:26:38.981Z,27.30
2018-07-15T12:29:06.715Z,27.20
2018-07-15T12:31:34.194Z,27.00
2018-07-15T12:34:01.622Z,26.80
2018-07-15T12:36:29.061Z,26.70
2018-07-15T12:38:56.493Z,26.50
2018-07-15T12:41:24.034Z,26.50
2018-07-15T12:43:51.419Z,26.50
2018-07-15T12:46:18.960Z,26.50
2018-07-15T12:48:46.604Z,26.60
2018-07-15T12:51:14.131Z,26.40
2018-07-15T12:53:41.514Z,26.50
2018-07-15T12:56:08.982Z,26.60
2018-07-15T12:58:36.414Z,26.70
2018-07-15T13:01:03.791Z,26.70
2018-07-15T13:03:31.244Z,26.60
2018-07-15T13:05:58.741Z,26.90
2018-07-15T13:08:26.165Z,27.30
2018-07-15T13:10:53.546Z,27.50
2018-07-15T13:13:20.974Z,27.00
2018-07-15T13:15:48.467Z,26.30
2018-07-15T13:18:15.985Z,26.10
2018-07-15T13:20:43.394Z,26.10
2018-07-15T13:23:10.766Z,26.50
2018-07-15T13:25:38.543Z,26.80
2018-07-15T13:28:06.242Z,27.20
2018-07-15T13:30:33.844Z,27.20
2018-07-15T13:33:01.380Z,27.20
2018-07-15T13:35:29.156Z,27.20
2018-07-15T13:37:56.542Z,27.00
2018-07-15T13:40:23.898Z,27.10
2018-07-15T13:42:51.360Z,26.90
2018-07-15T13:47:46.082Z,26.40
2018-07-15T13:50:13.419Z,26.30
2018-07-15T13:52:40.872Z,25.90
2018-07-15T13:55:08.174Z,25.50
2018-07-15T13:57:35.620Z,25.50
2018-07-15T14:00:04.345Z,25.30
2018-07-15T14:02:31.674Z,25.20
2018-07-15T14:04:59.015Z,25.00
2018-07-15T14:07:26.526Z,25.00
2018-07-15T14:09:53.866Z,25.00
2018-07-15T14:12:21.354Z,24.90
2018-07-15T14:14:48.674Z,25.00
2018-07-15T14:17:16.122Z,25.10
2018-07-15T14:19:43.581Z,25.00
2018-07-15T14:22:10.947Z,25.20
2018-07-15T14:24:38.276Z,25.40
2018-07-15T14:27:05.682Z,25.60
2018-07-15T14:29:33.038Z,25.60
2018-07-15T14:32:00.459Z,25.70
2018-07-15T14:34:27.876Z,25.60
2018-07-15T14:36:55.306Z,25.70
2018-07-15T14:39:31.858Z,25.80
2018-07-15T14:41:59.250Z,26.00
2018-07-15T14:44:26.722Z,25.60
2018-07-15T14:46:54.118Z,25.50
2018-07-15T14:49:21.510Z,25.60
2018-07-15T14:51:48.966Z,25.80
2018-07-15T14:54:16.574Z,25.60
2018-07-15T14:56:44.042Z,25.50
2018-07-15T14:59:11.669Z,25.30
2018-07-15T15:01:39.091Z,25.50
2018-07-15T15:04:06.537Z,25.70
2018-07-15T15:06:34.036Z,25.90
2018-07-15T15:09:01.610Z,25.90
2018-07-15T15:11:29.154Z,25.90
2018-07-15T15:13:56.668Z,25.80
2018-07-15T15:16:24.099Z,25.80
2018-07-15T15:18:51.538Z,25.90
2018-07-15T15:21:19.006Z,25.90
2018-07-15T15:23:46.487Z,26.10
2018-07-15T15:26:13.961Z,26.20
2018-07-15T15:28:41.293Z,26.20
2018-07-15T15:31:08.806Z,25.90
2018-07-15T15:33:36.300Z,26.10
2018-07-15T15:36:03.633Z,25.80
2018-07-15T15:38:31.144Z,25.80
2018-07-15T15:40:58.547Z,25.80
2018-07-15T15:43:25.974Z,25.70
2018-07-15T15:45:53.319Z,25.80
2018-07-15T15:48:20.776Z,25.90
2018-07-15T15:50:48.331Z,26.00
2018-07-15T15:53:15.838Z,26.00
2018-07-15T15:55:43.289Z,26.00
2018-07-15T15:58:10.854Z,26.00
2018-07-15T16:00:38.937Z,25.80
2018-07-15T16:03:06.974Z,25.80
2018-07-15T16:05:34.305Z,25.90
2018-07-15T16:08:01.718Z,26.00
2018-07-15T16:10:29.150Z,25.90
2018-07-15T16:12:56.774Z,25.90
2018-07-15T16:15:24.200Z,25.90
2018-07-15T16:17:51.554Z,25.90
2018-07-15T16:20:19.021Z,25.70
2018-07-15T16:22:46.399Z,25.70
2018-07-15T16:25:13.885Z,25.70
2018-07-15T16:27:41.320Z,25.70
2018-07-15T16:30:08.940Z,25.70
2018-07-15T16:32:37.426Z,25.70
2018-07-15T16:35:04.871Z,25.80
2018-07-15T16:37:32.302Z,25.70
2018-07-15T16:39:59.789Z,25.80
2018-07-15T16:42:27.328Z,25.90
2018-07-15T16:44:54.688Z,25.80
2018-07-15T16:47:22.436Z,25.90
2018-07-15T16:49:49.934Z,25.90
2018-07-15T16:52:17.369Z,25.80
2018-07-15T16:54:44.901Z,25.70
2018-07-15T16:57:12.335Z,25.60
2018-07-15T16:59:39.755Z,25.60
2018-07-15T17:02:07.236Z,25.40
2018-07-15T17:04:35.601Z,25.30
2018-07-15T17:07:03.233Z,25.20
2018-07-15T17:09:30.574Z,25.30
2018-07-15T17:14:26.978Z,25.20
2018-07-15T17:16:54.420Z,25.30
2018-07-15T17:19:21.858Z,25.40
2018-07-15T17:21:49.267Z,25.50
2018-07-15T17:24:16.696Z,25.50
2018-07-15T17:26:44.094Z,25.50
2018-07-15T17:29:11.505Z,25.50
2018-07-15T17:31:39.047Z,25.50
2018-07-15T17:34:08.585Z,25.50
2018-07-15T17:36:35.945Z,25.30
2018-07-15T17:39:04.214Z,25.30
2018-07-15T17:41:32.024Z,25.30
2018-07-15T17:43:59.535Z,25.30
2018-07-15T17:46:26.910Z,25.20
2018-07-15T17:48:54.736Z,25.20
2018-07-15T17:51:22.167Z,25.10
2018-07-15T17:53:50.198Z,25.10
2018-07-15T17:56:19.054Z,25.00
2018-07-15T17:58:46.590Z,25.00
2018-07-15T18:01:17.650Z,24.90
2018-07-15T18:06:18.741Z,25.00
2018-07-15T18:08:46.167Z,25.00
2018-07-15T18:11:13.555Z,25.00
2018-07-15T18:13:40.898Z,25.00
2018-07-15T18:16:08.432Z,24.90
2018-07-15T18:18:35.865Z,24.70
2018-07-15T18:21:03.289Z,24.60
2018-07-15T18:23:30.699Z,24.50
2018-07-15T18:25:58.154Z,24.50
2018-07-15T18:28:25.599Z,24.30
2018-07-15T18:30:53.095Z,24.30
2018-07-15T18:33:20.583Z,24.40
2018-07-15T18:35:48.027Z,24.40
2018-07-15T18:38:15.374Z,24.20
2018-07-15T18:40:42.783Z,24.10
2018-07-15T18:43:10.160Z,23.90
2018-07-15T18:45:37.562Z,23.70
2018-07-15T18:48:05.048Z,23.60
2018-07-15T18:50:32.410Z,23.50
2018-07-15T18:52:59.889Z,23.40
2018-07-15T18:55:27.288Z,23.20
2018-07-15T18:57:54.791Z,23.20
2018-07-15T19:00:22.385Z,23.00
2018-07-15T19:02:49.835Z,22.70
2018-07-15T19:05:17.631Z,22.60
2018-07-15T19:07:45.554Z,22.60
2018-07-15T19:10:12.959Z,22.60
2018-07-15T19:12:40.640Z,22.60
2018-07-15T19:15:08.115Z,22.60
2018-07-15T19:17:35.580Z,22.50
2018-07-15T19:20:03.126Z,22.30
2018-07-15T19:22:30.626Z,22.10
2018-07-15T19:24:58.072Z,22.00
2018-07-15T19:27:25.577Z,22.00
2018-07-15T19:29:53.025Z,22.10
2018-07-15T19:32:20.430Z,22.00
2018-07-15T19:34:47.838Z,21.90
2018-07-15T19:37:15.283Z,21.70
2018-07-15T19:39:42.779Z,21.60
2018-07-15T19:42:10.218Z,21.50
2018-07-15T19:44:37.677Z,21.50
2018-07-15T19:47:05.406Z,21.50
2018-07-15T19:49:32.995Z,21.40
2018-07-15T19:52:00.366Z,21.40
2018-07-15T19:54:27.758Z,21.20
2018-07-15T19:56:55.158Z,21.10
2018-07-15T19:59:22.674Z,21.10
2018-07-15T20:01:50.229Z,21.20
2018-07-15T20:04:18.212Z,21.10
2018-07-15T20:06:46.377Z,21.00
2018-07-15T20:09:13.883Z,20.90
2018-07-15T20:11:41.343Z,20.90
2018-07-15T20:14:08.830Z,20.90
2018-07-15T20:16:37.456Z,20.80
2018-07-15T20:19:04.963Z,20.90
2018-07-15T20:21:32.529Z,20.90
2018-07-15T20:24:00.021Z,20.90
2018-07-15T20:26:27.499Z,20.90
2018-07-15T20:28:54.897Z,20.80
2018-07-15T20:31:22.462Z,20.80
2018-07-15T20:33:49.869Z,20.60
2018-07-15T20:36:17.355Z,20.50
2018-07-15T20:41:12.767Z,20.30
2018-07-15T20:43:40.154Z,20.10
2018-07-15T20:48:34.912Z,20.10
2018-07-15T20:51:02.366Z,20.10
2018-07-15T20:53:29.774Z,20.20
2018-07-15T20:55:57.247Z,20.20
2018-07-15T20:58:24.640Z,20.30
2018-07-15T21:00:52.161Z,20.20
2018-07-15T21:03:19.584Z,20.20
2018-07-15T21:05:46.965Z,20.00
2018-07-15T21:08:14.407Z,19.90
2018-07-15T21:10:41.720Z,19.90
2018-07-15T21:13:09.176Z,19.80
2018-07-15T21:15:37.849Z,19.80
2018-07-15T21:18:06.241Z,19.80
2018-07-15T21:20:34.218Z,19.70
2018-07-15T21:23:02.182Z,19.80
2018-07-15T21:25:30.099Z,19.80
2018-07-15T21:27:58.020Z,19.60
2018-07-15T21:30:27.341Z,19.50
2018-07-15T21:32:55.784Z,19.50
2018-07-15T21:35:23.534Z,19.40
2018-07-15T21:37:51.651Z,19.50
2018-07-15T21:40:19.516Z,19.40
2018-07-15T21:42:47.198Z,19.50
2018-07-15T21:45:15.157Z,19.50
2018-07-15T21:47:43.005Z,19.50
2018-07-15T21:50:10.856Z,19.40
2018-07-15T21:52:38.463Z,19.50
2018-07-15T21:57:59.407Z,19.40
2018-07-15T22:03:22.351Z,19.60
2018-07-15T22:05:53.245Z,19.50
2018-07-15T22:08:32.196Z,19.40
2018-07-15T22:11:00.968Z,19.20
2018-07-15T22:13:28.606Z,19.30
2018-07-15T22:15:56.245Z,19.20
2018-07-15T22:18:24.136Z,19.30
2018-07-15T22:20:51.949Z,19.20
2018-07-15T22:23:19.892Z,19.20
2018-07-15T22:25:47.572Z,19.10
2018-07-15T22:28:15.124Z,19.10
2018-07-15T22:30:42.689Z,19.10
2018-07-15T22:33:10.167Z,19.10
2018-07-15T22:35:37.570Z,19.00
2018-07-15T22:38:05.637Z,19.00
2018-07-15T22:40:33.102Z,19.10
2018-07-15T22:43:00.481Z,19.10
2018-07-15T22:45:27.920Z,19.10
2018-07-15T22:47:55.263Z,19.00
2018-07-15T22:50:22.757Z,19.00
2018-07-15T22:52:54.358Z,19.00
2018-07-15T22:55:21.722Z,19.00
2018-07-15T22:57:49.210Z,19.00
2018-07-15T23:00:20.799Z,19.00
2018-07-15T23:02:50.037Z,18.90
2018-07-15T23:05:55.876Z,18.90
2018-07-15T23:08:24.313Z,19.00
2018-07-15T23:10:51.931Z,18.90
2018-07-15T23:13:24.078Z,18.80
2018-07-15T23:15:57.020Z,18.90
2018-07-15T23:18:25.130Z,18.80
2018-07-15T23:20:52.546Z,18.80
2018-07-15T23:23:19.970Z,18.80
2018-07-15T23:25:47.725Z,18.70
2018-07-15T23:28:16.096Z,18.60
2018-07-15T23:30:44.033Z,18.60
2018-07-15T23:33:11.714Z,18.70
2018-07-15T23:35:39.132Z,18.60
2018-07-15T23:38:06.702Z,18.60
2018-07-15T23:40:34.110Z,18.40
2018-07-15T23:43:01.921Z,18.30
2018-07-15T23:45:30.526Z,18.20
2018-07-15T23:47:57.938Z,18.20
2018-07-15T23:50:25.525Z,18.20
2018-07-15T23:52:53.178Z,18.30
2018-07-15T23:55:20.622Z,18.20
2018-07-15T23:57:48.342Z,18.10
